sensor_id;sensor_type;location;lat;lon;timestamp;pressure;altitude;pressure_sealevel;temperature;humidity
36454;BME280;22478;51.740;-1.314;2023-04-08T00:00:21;101050.73;;;4.12;83.29
36454;BME280;22478;51.740;-1.314;2023-04-08T00:02:48;101048.52;;;4.28;81.08
36454;BME280;22478;51.740;-1.314;2023-04-08T00:05:15;101048.44;;;3.77;83.23
36454;BME280;22478;51.740;-1.314;2023-04-08T00:07:43;101047.95;;;3.78;83.33
36454;BME280;22478;51.740;-1.314;2023-04-08T00:10:10;101057.00;;;1.72;95.33
36454;BME280;22478;51.740;-1.314;2023-04-08T00:12:37;101054.29;;;2.32;93.29
36454;BME280;22478;51.740;-1.314;2023-04-08T00:15:05;101054.58;;;2.86;87.61
36454;BME280;22478;51.740;-1.314;2023-04-08T00:17:32;101053.89;;;3.00;84.84
36454;BME280;22478;51.740;-1.314;2023-04-08T00:19:59;101051.43;;;3.22;83.67
36454;BME280;22478;51.740;-1.314;2023-04-08T00:22:27;101056.57;;;2.24;85.21
36454;BME280;22478;51.740;-1.314;2023-04-08T00:24:54;101068.01;;;0.44;100.00
36454;BME280;22478;51.740;-1.314;2023-04-08T00:27:21;101057.91;;;1.54;93.77
36454;BME280;22478;51.740;-1.314;2023-04-08T00:29:48;101066.61;;;0.11;97.53
36454;BME280;22478;51.740;-1.314;2023-04-08T00:32:16;101056.93;;;2.33;88.19
36454;BME280;22478;51.740;-1.314;2023-04-08T00:34:43;101053.39;;;1.70;89.66
36454;BME280;22478;51.740;-1.314;2023-04-08T00:37:10;101048.08;;;2.21;87.35
36454;BME280;22478;51.740;-1.314;2023-04-08T00:39:37;101047.58;;;2.60;89.49
36454;BME280;22478;51.740;-1.314;2023-04-08T00:42:04;101048.92;;;1.87;89.21
36454;BME280;22478;51.740;-1.314;2023-04-08T00:44:32;101056.84;;;1.25;96.33
36454;BME280;22478;51.740;-1.314;2023-04-08T00:46:59;101050.43;;;2.09;91.34
36454;BME280;22478;51.740;-1.314;2023-04-08T00:49:26;101057.53;;;-0.70;100.00
36454;BME280;22478;51.740;-1.314;2023-04-08T00:51:53;101055.72;;;0.89;100.00
36454;BME280;22478;51.740;-1.314;2023-04-08T00:54:20;101054.72;;;0.90;97.06
36454;BME280;22478;51.740;-1.314;2023-04-08T00:56:48;101049.27;;;1.38;94.83
36454;BME280;22478;51.740;-1.314;2023-04-08T00:59:16;101050.18;;;1.75;95.95
36454;BME280;22478;51.740;-1.314;2023-04-08T01:01:49;101057.90;;;-1.23;100.00
36454;BME280;22478;51.740;-1.314;2023-04-08T01:04:23;101055.84;;;1.98;99.32
36454;BME280;22478;51.740;-1.314;2023-04-08T01:06:58;101057.44;;;1.33;98.61
36454;BME280;22478;51.740;-1.314;2023-04-08T01:09:31;101059.22;;;0.75;99.68
36454;BME280;22478;51.740;-1.314;2023-04-08T01:12:00;101060.76;;;1.23;100.00
36454;BME280;22478;51.740;-1.314;2023-04-08T01:14:31;101060.68;;;1.10;100.00
36454;BME280;22478;51.740;-1.314;2023-04-08T01:17:01;101059.98;;;0.87;100.00
36454;BME280;22478;51.740;-1.314;2023-04-08T01:19:30;101057.99;;;0.49;100.00
36454;BME280;22478;51.740;-1.314;2023-04-08T01:22:04;101056.30;;;1.11;100.00
36454;BME280;22478;51.740;-1.314;2023-04-08T01:24:37;101056.27;;;1.06;100.00
36454;BME280;22478;51.740;-1.314;2023-04-08T01:27:06;101059.83;;;0.20;100.00
36454;BME280;22478;51.740;-1.314;2023-04-08T01:29:35;101063.95;;;0.50;100.00
36454;BME280;22478;51.740;-1.314;2023-04-08T01:32:03;101061.77;;;0.20;100.00
36454;BME280;22478;51.740;-1.314;2023-04-08T01:34:33;101061.27;;;1.13;100.00
36454;BME280;22478;51.740;-1.314;2023-04-08T01:37:02;101059.74;;;0.85;100.00
36454;BME280;22478;51.740;-1.314;2023-04-08T01:39:30;101060.97;;;0.96;100.00
36454;BME280;22478;51.740;-1.314;2023-04-08T01:41:58;101060.36;;;-0.88;100.00
36454;BME280;22478;51.740;-1.314;2023-04-08T01:44:26;101060.97;;;0.65;100.00
36454;BME280;22478;51.740;-1.314;2023-04-08T01:46:55;101060.78;;;1.16;100.00
36454;BME280;22478;51.740;-1.314;2023-04-08T01:49:24;101060.68;;;0.56;100.00
36454;BME280;22478;51.740;-1.314;2023-04-08T01:51:52;101064.62;;;0.54;100.00
36454;BME280;22478;51.740;-1.314;2023-04-08T01:54:23;101063.69;;;0.67;100.00
36454;BME280;22478;51.740;-1.314;2023-04-08T01:56:51;101066.12;;;-0.20;100.00
36454;BME280;22478;51.740;-1.314;2023-04-08T01:59:21;101066.39;;;-0.06;100.00
36454;BME280;22478;51.740;-1.314;2023-04-08T02:01:50;101067.54;;;-0.87;100.00
36454;BME280;22478;51.740;-1.314;2023-04-08T02:04:19;101071.97;;;0.34;100.00
36454;BME280;22478;51.740;-1.314;2023-04-08T02:06:46;101071.27;;;0.75;100.00
36454;BME280;22478;51.740;-1.314;2023-04-08T02:09:13;101070.78;;;1.11;100.00
36454;BME280;22478;51.740;-1.314;2023-04-08T02:11:41;101072.46;;;0.27;100.00
36454;BME280;22478;51.740;-1.314;2023-04-08T02:14:08;101074.08;;;0.51;100.00
36454;BME280;22478;51.740;-1.314;2023-04-08T02:16:40;101076.26;;;0.03;100.00
36454;BME280;22478;51.740;-1.314;2023-04-08T02:19:14;101074.20;;;-0.49;100.00
36454;BME280;22478;51.740;-1.314;2023-04-08T02:21:46;101062.57;;;2.33;100.00
36454;BME280;22478;51.740;-1.314;2023-04-08T02:24:15;101061.75;;;2.56;94.12
36454;BME280;22478;51.740;-1.314;2023-04-08T02:26:43;101065.38;;;2.98;89.29
36454;BME280;22478;51.740;-1.314;2023-04-08T02:29:14;101067.47;;;3.62;86.37
36454;BME280;22478;51.740;-1.314;2023-04-08T02:31:43;101063.40;;;3.72;83.88
36454;BME280;22478;51.740;-1.314;2023-04-08T02:34:13;101065.06;;;3.77;81.95
36454;BME280;22478;51.740;-1.314;2023-04-08T02:36:39;101072.12;;;2.52;87.59
36454;BME280;22478;51.740;-1.314;2023-04-08T02:39:07;101075.92;;;3.12;85.00
36454;BME280;22478;51.740;-1.314;2023-04-08T02:41:34;101077.12;;;3.99;81.87
36454;BME280;22478;51.740;-1.314;2023-04-08T02:44:01;101079.35;;;2.99;83.59
36454;BME280;22478;51.740;-1.314;2023-04-08T02:46:29;101076.06;;;3.74;79.48
36454;BME280;22478;51.740;-1.314;2023-04-08T02:48:56;101080.33;;;3.96;75.62
36454;BME280;22478;51.740;-1.314;2023-04-08T02:51:23;101084.57;;;4.38;74.44
36454;BME280;22478;51.740;-1.314;2023-04-08T02:53:50;101088.87;;;5.34;72.78
36454;BME280;22478;51.740;-1.314;2023-04-08T02:56:18;101087.27;;;4.52;73.47
36454;BME280;22478;51.740;-1.314;2023-04-08T02:58:45;101091.32;;;4.08;76.89
36454;BME280;22478;51.740;-1.314;2023-04-08T03:01:12;101100.62;;;2.95;86.36
36454;BME280;22478;51.740;-1.314;2023-04-08T03:03:39;101101.26;;;2.41;91.14
36454;BME280;22478;51.740;-1.314;2023-04-08T03:06:06;101102.31;;;2.57;92.24
36454;BME280;22478;51.740;-1.314;2023-04-08T03:08:33;101101.67;;;2.17;98.55
36454;BME280;22478;51.740;-1.314;2023-04-08T03:11:00;101101.39;;;2.64;100.00
36454;BME280;22478;51.740;-1.314;2023-04-08T03:13:28;101103.02;;;2.33;95.18
36454;BME280;22478;51.740;-1.314;2023-04-08T03:15:55;101099.58;;;3.22;92.14
36454;BME280;22478;51.740;-1.314;2023-04-08T03:18:23;101098.07;;;2.91;90.57
36454;BME280;22478;51.740;-1.314;2023-04-08T03:20:50;101098.37;;;2.82;90.52
36454;BME280;22478;51.740;-1.314;2023-04-08T03:23:17;101099.77;;;3.70;87.48
36454;BME280;22478;51.740;-1.314;2023-04-08T03:25:45;101106.64;;;2.70;87.58
36454;BME280;22478;51.740;-1.314;2023-04-08T03:28:12;101105.57;;;4.04;83.70
36454;BME280;22478;51.740;-1.314;2023-04-08T03:30:39;101106.31;;;3.73;82.97
36454;BME280;22478;51.740;-1.314;2023-04-08T03:33:06;101108.16;;;4.13;81.56
36454;BME280;22478;51.740;-1.314;2023-04-08T03:35:33;101107.66;;;4.00;84.29
36454;BME280;22478;51.740;-1.314;2023-04-08T03:38:01;101111.22;;;3.32;85.04
36454;BME280;22478;51.740;-1.314;2023-04-08T03:40:28;101114.33;;;2.83;89.36
36454;BME280;22478;51.740;-1.314;2023-04-08T03:42:55;101117.08;;;2.29;92.44
36454;BME280;22478;51.740;-1.314;2023-04-08T03:45:23;101117.01;;;2.33;96.72
36454;BME280;22478;51.740;-1.314;2023-04-08T03:47:50;101116.76;;;3.01;94.40
36454;BME280;22478;51.740;-1.314;2023-04-08T03:50:17;101118.51;;;2.46;96.02
36454;BME280;22478;51.740;-1.314;2023-04-08T03:52:44;101118.01;;;2.75;91.77
36454;BME280;22478;51.740;-1.314;2023-04-08T03:55:11;101120.51;;;3.00;91.81
36454;BME280;22478;51.740;-1.314;2023-04-08T03:57:39;101120.65;;;2.44;93.45
36454;BME280;22478;51.740;-1.314;2023-04-08T04:00:07;101122.74;;;1.91;95.17
36454;BME280;22478;51.740;-1.314;2023-04-08T04:02:35;101123.49;;;2.56;90.45
36454;BME280;22478;51.740;-1.314;2023-04-08T04:05:03;101124.44;;;2.48;92.45
36454;BME280;22478;51.740;-1.314;2023-04-08T04:07:30;101126.48;;;2.96;91.02
36454;BME280;22478;51.740;-1.314;2023-04-08T04:09:57;101128.14;;;2.97;87.59
36454;BME280;22478;51.740;-1.314;2023-04-08T04:12:25;101129.79;;;3.28;89.80
36454;BME280;22478;51.740;-1.314;2023-04-08T04:14:52;101133.10;;;3.15;87.87
36454;BME280;22478;51.740;-1.314;2023-04-08T04:17:19;101133.35;;;3.03;86.89
36454;BME280;22478;51.740;-1.314;2023-04-08T04:19:46;101134.82;;;2.35;93.37
36454;BME280;22478;51.740;-1.314;2023-04-08T04:22:14;101137.38;;;2.23;95.32
36454;BME280;22478;51.740;-1.314;2023-04-08T04:24:46;101139.54;;;2.49;97.12
36454;BME280;22478;51.740;-1.314;2023-04-08T04:27:13;101143.38;;;2.66;94.01
36454;BME280;22478;51.740;-1.314;2023-04-08T04:29:40;101138.19;;;3.03;86.28
36454;BME280;22478;51.740;-1.314;2023-04-08T04:32:08;101139.46;;;2.84;86.90
36454;BME280;22478;51.740;-1.314;2023-04-08T04:34:35;101144.15;;;2.59;91.79
36454;BME280;22478;51.740;-1.314;2023-04-08T04:37:02;101146.60;;;2.51;89.13
36454;BME280;22478;51.740;-1.314;2023-04-08T04:39:29;101144.81;;;2.72;88.56
36454;BME280;22478;51.740;-1.314;2023-04-08T04:41:56;101151.26;;;2.61;90.27
36454;BME280;22478;51.740;-1.314;2023-04-08T04:44:24;101156.47;;;2.61;89.42
36454;BME280;22478;51.740;-1.314;2023-04-08T04:46:51;101155.93;;;3.14;87.60
36454;BME280;22478;51.740;-1.314;2023-04-08T04:49:19;101156.68;;;2.86;85.76
36454;BME280;22478;51.740;-1.314;2023-04-08T04:51:46;101162.38;;;2.56;86.89
36454;BME280;22478;51.740;-1.314;2023-04-08T04:54:13;101164.33;;;2.50;88.03
36454;BME280;22478;51.740;-1.314;2023-04-08T04:56:40;101165.97;;;3.76;78.18
36454;BME280;22478;51.740;-1.314;2023-04-08T04:59:08;101165.33;;;3.21;82.33
36454;BME280;22478;51.740;-1.314;2023-04-08T05:01:35;101169.85;;;2.55;87.64
36454;BME280;22478;51.740;-1.314;2023-04-08T05:04:02;101175.21;;;1.97;94.30
36454;BME280;22478;51.740;-1.314;2023-04-08T05:06:30;101175.13;;;1.17;99.39
36454;BME280;22478;51.740;-1.314;2023-04-08T05:08:58;101173.35;;;0.61;100.00
36454;BME280;22478;51.740;-1.314;2023-04-08T05:11:25;101176.91;;;-0.05;100.00
36454;BME280;22478;51.740;-1.314;2023-04-08T05:13:53;101174.76;;;0.03;100.00
36454;BME280;22478;51.740;-1.314;2023-04-08T05:16:20;101170.83;;;0.51;100.00
36454;BME280;22478;51.740;-1.314;2023-04-08T05:18:48;101169.21;;;-0.20;100.00
36454;BME280;22478;51.740;-1.314;2023-04-08T05:21:15;101169.11;;;-0.06;100.00
36454;BME280;22478;51.740;-1.314;2023-04-08T05:23:42;101171.63;;;0.23;100.00
36454;BME280;22478;51.740;-1.314;2023-04-08T05:26:09;101173.52;;;-0.88;100.00
36454;BME280;22478;51.740;-1.314;2023-04-08T05:28:37;101176.77;;;0.30;100.00
36454;BME280;22478;51.740;-1.314;2023-04-08T05:31:04;101177.63;;;-0.43;100.00
36454;BME280;22478;51.740;-1.314;2023-04-08T05:33:31;101177.74;;;1.56;100.00
36454;BME280;22478;51.740;-1.314;2023-04-08T05:35:59;101180.45;;;1.84;100.00
36454;BME280;22478;51.740;-1.314;2023-04-08T05:38:26;101186.08;;;2.18;98.21
36454;BME280;22478;51.740;-1.314;2023-04-08T05:40:53;101191.90;;;1.57;100.00
36454;BME280;22478;51.740;-1.314;2023-04-08T05:43:21;101205.20;;;-3.11;100.00
36454;BME280;22478;51.740;-1.314;2023-04-08T05:45:49;101216.65;;;-3.00;100.00
36454;BME280;22478;51.740;-1.314;2023-04-08T05:48:16;101217.27;;;-0.62;100.00
36454;BME280;22478;51.740;-1.314;2023-04-08T05:50:44;101208.70;;;1.41;99.74
36454;BME280;22478;51.740;-1.314;2023-04-08T05:53:11;101207.61;;;2.45;94.60
36454;BME280;22478;51.740;-1.314;2023-04-08T05:55:39;101211.19;;;2.50;94.25
36454;BME280;22478;51.740;-1.314;2023-04-08T05:58:07;101214.96;;;2.14;96.46
36454;BME280;22478;51.740;-1.314;2023-04-08T06:00:34;101217.23;;;0.38;100.00
36454;BME280;22478;51.740;-1.314;2023-04-08T06:03:01;101215.38;;;2.96;92.20
36454;BME280;22478;51.740;-1.314;2023-04-08T06:05:28;101211.19;;;3.10;90.29
36454;BME280;22478;51.740;-1.314;2023-04-08T06:07:55;101220.26;;;1.55;96.02
36454;BME280;22478;51.740;-1.314;2023-04-08T06:10:23;101219.04;;;3.08;87.03
36454;BME280;22478;51.740;-1.314;2023-04-08T06:12:50;101218.18;;;3.14;89.34
36454;BME280;22478;51.740;-1.314;2023-04-08T06:15:18;101225.09;;;2.97;93.23
36454;BME280;22478;51.740;-1.314;2023-04-08T06:17:46;101228.93;;;2.23;96.14
36454;BME280;22478;51.740;-1.314;2023-04-08T06:20:13;101232.17;;;2.26;97.20
36454;BME280;22478;51.740;-1.314;2023-04-08T06:22:40;101239.27;;;0.77;100.00
36454;BME280;22478;51.740;-1.314;2023-04-08T06:25:08;101236.05;;;1.96;97.90
36454;BME280;22478;51.740;-1.314;2023-04-08T06:27:35;101242.31;;;1.13;100.00
36454;BME280;22478;51.740;-1.314;2023-04-08T06:30:03;101234.97;;;3.85;90.41
36454;BME280;22478;51.740;-1.314;2023-04-08T06:32:30;101237.90;;;3.80;90.23
36454;BME280;22478;51.740;-1.314;2023-04-08T06:34:57;101239.79;;;3.70;89.40
36454;BME280;22478;51.740;-1.314;2023-04-08T06:37:25;101238.76;;;3.12;91.79
36454;BME280;22478;51.740;-1.314;2023-04-08T06:39:52;101240.09;;;2.45;93.96
36454;BME280;22478;51.740;-1.314;2023-04-08T06:42:19;101241.52;;;3.11;93.29
36454;BME280;22478;51.740;-1.314;2023-04-08T06:44:46;101242.05;;;3.67;92.78
36454;BME280;22478;51.740;-1.314;2023-04-08T06:47:13;101245.12;;;3.82;94.06
36454;BME280;22478;51.740;-1.314;2023-04-08T06:49:40;101248.38;;;3.95;94.40
36454;BME280;22478;51.740;-1.314;2023-04-08T06:52:07;101253.29;;;2.93;100.00
36454;BME280;22478;51.740;-1.314;2023-04-08T06:54:34;101261.19;;;1.52;100.00
36454;BME280;22478;51.740;-1.314;2023-04-08T06:57:02;101255.32;;;3.40;100.00
36454;BME280;22478;51.740;-1.314;2023-04-08T06:59:29;101259.33;;;2.45;100.00
36454;BME280;22478;51.740;-1.314;2023-04-08T07:01:56;101256.19;;;2.09;100.00
36454;BME280;22478;51.740;-1.314;2023-04-08T07:04:24;101248.56;;;4.48;98.54
36454;BME280;22478;51.740;-1.314;2023-04-08T07:06:51;101257.81;;;1.70;100.00
36454;BME280;22478;51.740;-1.314;2023-04-08T07:09:18;101254.76;;;3.11;100.00
36454;BME280;22478;51.740;-1.314;2023-04-08T07:11:45;101252.97;;;3.68;100.00
36454;BME280;22478;51.740;-1.314;2023-04-08T07:14:12;101247.32;;;3.92;100.00
36454;BME280;22478;51.740;-1.314;2023-04-08T07:16:40;101245.28;;;4.71;96.92
36454;BME280;22478;51.740;-1.314;2023-04-08T07:19:07;101244.70;;;4.74;96.12
36454;BME280;22478;51.740;-1.314;2023-04-08T07:21:33;101245.19;;;5.16;98.61
36454;BME280;22478;51.740;-1.314;2023-04-08T07:24:01;101248.40;;;3.34;100.00
36454;BME280;22478;51.740;-1.314;2023-04-08T07:26:28;101249.43;;;3.57;100.00
36454;BME280;22478;51.740;-1.314;2023-04-08T07:28:55;101252.34;;;5.43;100.00
36454;BME280;22478;51.740;-1.314;2023-04-08T07:31:23;101255.08;;;3.82;100.00
36454;BME280;22478;51.740;-1.314;2023-04-08T07:33:50;101263.16;;;4.06;100.00
36454;BME280;22478;51.740;-1.314;2023-04-08T07:36:18;101259.83;;;5.24;100.00
36454;BME280;22478;51.740;-1.314;2023-04-08T07:38:44;101266.48;;;4.89;100.00
36454;BME280;22478;51.740;-1.314;2023-04-08T07:41:11;101268.43;;;5.59;100.00
36454;BME280;22478;51.740;-1.314;2023-04-08T07:43:39;101278.90;;;2.16;100.00
36454;BME280;22478;51.740;-1.314;2023-04-08T07:46:06;101276.64;;;3.27;100.00
36454;BME280;22478;51.740;-1.314;2023-04-08T07:48:34;101278.82;;;4.64;100.00
36454;BME280;22478;51.740;-1.314;2023-04-08T07:51:03;101287.96;;;0.41;100.00
36454;BME280;22478;51.740;-1.314;2023-04-08T07:53:30;101285.32;;;4.36;100.00
36454;BME280;22478;51.740;-1.314;2023-04-08T07:55:57;101282.37;;;3.31;100.00
36454;BME280;22478;51.740;-1.314;2023-04-08T07:58:24;101286.14;;;4.42;100.00
36454;BME280;22478;51.740;-1.314;2023-04-08T08:00:52;101285.14;;;7.03;100.00
36454;BME280;22478;51.740;-1.314;2023-04-08T08:03:19;101280.81;;;7.95;96.33
36454;BME280;22478;51.740;-1.314;2023-04-08T08:05:46;101290.46;;;3.54;100.00
36454;BME280;22478;51.740;-1.314;2023-04-08T08:08:13;101285.57;;;5.68;98.34
36454;BME280;22478;51.740;-1.314;2023-04-08T08:10:40;101292.45;;;4.08;100.00
36454;BME280;22478;51.740;-1.314;2023-04-08T08:13:07;101295.32;;;5.99;100.00
36454;BME280;22478;51.740;-1.314;2023-04-08T08:15:34;101284.81;;;8.80;90.59
36454;BME280;22478;51.740;-1.314;2023-04-08T08:18:02;101285.01;;;10.41;77.80
36454;BME280;22478;51.740;-1.314;2023-04-08T08:20:29;101287.76;;;11.29;70.05
36454;BME280;22478;51.740;-1.314;2023-04-08T08:22:56;101294.77;;;9.98;65.94
36454;BME280;22478;51.740;-1.314;2023-04-08T08:25:24;101294.29;;;10.39;62.49
36454;BME280;22478;51.740;-1.314;2023-04-08T08:27:51;101292.79;;;12.41;59.12
36454;BME280;22478;51.740;-1.314;2023-04-08T08:30:18;101295.04;;;12.34;57.36
36454;BME280;22478;51.740;-1.314;2023-04-08T08:32:46;101301.43;;;11.23;60.73
36454;BME280;22478;51.740;-1.314;2023-04-08T08:35:13;101302.42;;;10.69;59.20
36454;BME280;22478;51.740;-1.314;2023-04-08T08:37:40;101294.63;;;13.94;52.41
36454;BME280;22478;51.740;-1.314;2023-04-08T08:40:08;101298.53;;;12.69;55.58
36454;BME280;22478;51.740;-1.314;2023-04-08T08:42:35;101294.35;;;14.44;49.15
36454;BME280;22478;51.740;-1.314;2023-04-08T08:45:03;101297.74;;;14.42;48.25
36454;BME280;22478;51.740;-1.314;2023-04-08T08:47:30;101301.30;;;10.93;52.29
36454;BME280;22478;51.740;-1.314;2023-04-08T08:49:57;101303.59;;;11.33;56.75
36454;BME280;22478;51.740;-1.314;2023-04-08T08:52:25;101299.69;;;13.22;50.24
36454;BME280;22478;51.740;-1.314;2023-04-08T08:54:57;101301.19;;;13.71;48.35
36454;BME280;22478;51.740;-1.314;2023-04-08T08:57:24;101301.22;;;14.45;46.93
36454;BME280;22478;51.740;-1.314;2023-04-08T08:59:52;101298.66;;;13.24;50.09
36454;BME280;22478;51.740;-1.314;2023-04-08T09:02:24;101298.91;;;14.00;48.02
36454;BME280;22478;51.740;-1.314;2023-04-08T09:04:56;101299.24;;;12.96;51.44
36454;BME280;22478;51.740;-1.314;2023-04-08T09:07:24;101316.27;;;6.65;72.21
36454;BME280;22478;51.740;-1.314;2023-04-08T09:09:52;101313.89;;;8.37;73.42
36454;BME280;22478;51.740;-1.314;2023-04-08T09:12:20;101319.45;;;6.17;84.33
36454;BME280;22478;51.740;-1.314;2023-04-08T09:14:47;101314.07;;;6.72;81.28
36454;BME280;22478;51.740;-1.314;2023-04-08T09:17:15;101315.98;;;6.96;84.83
36454;BME280;22478;51.740;-1.314;2023-04-08T09:20:04;101318.96;;;7.02;80.97
36454;BME280;22478;51.740;-1.314;2023-04-08T09:22:32;101332.25;;;3.51;100.00
36454;BME280;22478;51.740;-1.314;2023-04-08T09:24:59;101330.27;;;4.79;98.69
36454;BME280;22478;51.740;-1.314;2023-04-08T09:27:34;101332.70;;;4.29;98.75
36454;BME280;22478;51.740;-1.314;2023-04-08T09:30:12;101330.78;;;4.65;100.00
36454;BME280;22478;51.740;-1.314;2023-04-08T09:32:48;101325.25;;;7.07;84.48
36454;BME280;22478;51.740;-1.314;2023-04-08T09:35:17;101338.98;;;3.44;100.00
36454;BME280;22478;51.740;-1.314;2023-04-08T09:37:44;101334.64;;;3.86;100.00
36454;BME280;22478;51.740;-1.314;2023-04-08T09:40:12;101340.05;;;4.31;100.00
36454;BME280;22478;51.740;-1.314;2023-04-08T09:42:43;101336.14;;;5.72;89.00
36454;BME280;22478;51.740;-1.314;2023-04-08T09:45:11;101337.17;;;4.04;99.66
36454;BME280;22478;51.740;-1.314;2023-04-08T09:47:51;101334.27;;;5.20;93.60
36454;BME280;22478;51.740;-1.314;2023-04-08T09:50:26;101337.28;;;6.28;96.45
36454;BME280;22478;51.740;-1.314;2023-04-08T09:53:00;101327.76;;;8.48;87.43
36454;BME280;22478;51.740;-1.314;2023-04-08T09:55:29;101319.84;;;9.98;60.09
36454;BME280;22478;51.740;-1.314;2023-04-08T09:58:03;101322.13;;;8.20;63.54
36454;BME280;22478;51.740;-1.314;2023-04-08T10:00:35;101321.82;;;10.42;62.88
36454;BME280;22478;51.740;-1.314;2023-04-08T10:03:10;101311.78;;;14.17;47.67
36454;BME280;22478;51.740;-1.314;2023-04-08T10:05:40;101317.98;;;11.56;52.29
36454;BME280;22478;51.740;-1.314;2023-04-08T10:08:07;101304.52;;;17.08;42.86
36454;BME280;22478;51.740;-1.314;2023-04-08T10:10:38;101316.65;;;11.59;45.98
36454;BME280;22478;51.740;-1.314;2023-04-08T10:13:06;101295.43;;;19.89;37.32
36454;BME280;22478;51.740;-1.314;2023-04-08T10:15:35;101309.21;;;13.63;42.16
36454;BME280;22478;51.740;-1.314;2023-04-08T10:18:34;101293.38;;;20.72;36.05
36454;BME280;22478;51.740;-1.314;2023-04-08T10:21:01;101294.72;;;18.00;35.70
36454;BME280;22478;51.740;-1.314;2023-04-08T10:24:01;101308.69;;;11.68;41.53
36454;BME280;22478;51.740;-1.314;2023-04-08T10:26:31;101309.93;;;12.03;42.77
36454;BME280;22478;51.740;-1.314;2023-04-08T10:29:32;101301.46;;;16.39;40.07
36454;BME280;22478;51.740;-1.314;2023-04-08T10:31:59;101306.92;;;11.54;42.20
36454;BME280;22478;51.740;-1.314;2023-04-08T10:34:27;101299.25;;;15.70;40.00
36454;BME280;22478;51.740;-1.314;2023-04-08T10:36:56;101317.92;;;9.31;49.55
36454;BME280;22478;51.740;-1.314;2023-04-08T10:39:24;101324.92;;;8.21;50.94
36454;BME280;22478;51.740;-1.314;2023-04-08T10:41:52;101313.45;;;13.91;44.23
36454;BME280;22478;51.740;-1.314;2023-04-08T10:44:20;101311.75;;;15.48;40.40
36454;BME280;22478;51.740;-1.314;2023-04-08T10:46:49;101305.54;;;13.25;39.38
36454;BME280;22478;51.740;-1.314;2023-04-08T10:49:17;101297.87;;;16.34;37.77
36454;BME280;22478;51.740;-1.314;2023-04-08T10:51:44;101308.48;;;12.23;42.63
36454;BME280;22478;51.740;-1.314;2023-04-08T10:54:14;101303.76;;;14.49;39.39
36454;BME280;22478;51.740;-1.314;2023-04-08T10:56:44;101307.17;;;13.55;40.38
36454;BME280;22478;51.740;-1.314;2023-04-08T10:59:12;101301.20;;;14.57;39.69
36454;BME280;22478;51.740;-1.314;2023-04-08T11:01:40;101312.75;;;8.62;46.34
36454;BME280;22478;51.740;-1.314;2023-04-08T11:04:11;101301.99;;;11.38;43.97
36454;BME280;22478;51.740;-1.314;2023-04-08T11:06:38;101296.97;;;12.30;41.66
36454;BME280;22478;51.740;-1.314;2023-04-08T11:09:05;101293.88;;;12.11;45.09
36454;BME280;22478;51.740;-1.314;2023-04-08T11:11:33;101287.61;;;12.70;45.69
36454;BME280;22478;51.740;-1.314;2023-04-08T11:14:00;101285.04;;;13.15;42.35
36454;BME280;22478;51.740;-1.314;2023-04-08T11:16:27;101278.83;;;13.85;39.07
36454;BME280;22478;51.740;-1.314;2023-04-08T11:18:55;101288.48;;;8.77;45.95
36454;BME280;22478;51.740;-1.314;2023-04-08T11:21:23;101280.09;;;11.35;42.80
36454;BME280;22478;51.740;-1.314;2023-04-08T11:23:50;101282.89;;;8.90;45.20
36454;BME280;22478;51.740;-1.314;2023-04-08T11:26:17;101284.84;;;7.68;54.69
36454;BME280;22478;51.740;-1.314;2023-04-08T11:28:46;101276.61;;;11.13;47.67
36454;BME280;22478;51.740;-1.314;2023-04-08T11:31:13;101274.68;;;13.89;41.46
36454;BME280;22478;51.740;-1.314;2023-04-08T11:33:45;101272.80;;;14.04;40.83
36454;BME280;22478;51.740;-1.314;2023-04-08T11:36:13;101272.39;;;14.80;39.82
36454;BME280;22478;51.740;-1.314;2023-04-08T11:38:41;101272.23;;;11.06;47.68
36454;BME280;22478;51.740;-1.314;2023-04-08T11:41:09;101269.00;;;11.61;49.79
36454;BME280;22478;51.740;-1.314;2023-04-08T11:43:37;101267.61;;;11.06;46.78
36454;BME280;22478;51.740;-1.314;2023-04-08T11:46:08;101264.63;;;13.93;41.68
36454;BME280;22478;51.740;-1.314;2023-04-08T11:48:36;101268.46;;;15.35;39.48
36454;BME280;22478;51.740;-1.314;2023-04-08T11:51:04;101262.80;;;14.95;34.51
36454;BME280;22478;51.740;-1.314;2023-04-08T11:53:32;101261.38;;;15.01;34.21
36454;BME280;22478;51.740;-1.314;2023-04-08T11:56:15;101261.59;;;14.45;34.53
36454;BME280;22478;51.740;-1.314;2023-04-08T11:58:43;101247.30;;;19.86;29.16
36454;BME280;22478;51.740;-1.314;2023-04-08T12:01:10;101245.24;;;19.04;28.83
36454;BME280;22478;51.740;-1.314;2023-04-08T12:03:37;101247.96;;;16.27;30.97
36454;BME280;22478;51.740;-1.314;2023-04-08T12:06:04;101247.73;;;19.85;28.44
36454;BME280;22478;51.740;-1.314;2023-04-08T12:08:32;101249.48;;;18.35;28.50
36454;BME280;22478;51.740;-1.314;2023-04-08T12:10:59;101242.01;;;20.74;27.83
36454;BME280;22478;51.740;-1.314;2023-04-08T12:13:26;101250.02;;;15.42;30.45
36454;BME280;22478;51.740;-1.314;2023-04-08T12:15:54;101236.14;;;20.06;27.28
36454;BME280;22478;51.740;-1.314;2023-04-08T12:18:20;101243.46;;;15.84;30.44
36454;BME280;22478;51.740;-1.314;2023-04-08T12:20:48;101246.89;;;16.76;30.52
36454;BME280;22478;51.740;-1.314;2023-04-08T12:23:15;101247.75;;;18.35;29.51
36454;BME280;22478;51.740;-1.314;2023-04-08T12:25:42;101254.60;;;16.44;30.11
36454;BME280;22478;51.740;-1.314;2023-04-08T12:28:10;101253.80;;;19.41;27.04
36454;BME280;22478;51.740;-1.314;2023-04-08T12:30:37;101248.05;;;18.37;26.82
36454;BME280;22478;51.740;-1.314;2023-04-08T12:33:04;101243.49;;;18.06;27.81
36454;BME280;22478;51.740;-1.314;2023-04-08T12:35:32;101245.10;;;18.66;27.90
36454;BME280;22478;51.740;-1.314;2023-04-08T12:37:58;101240.56;;;19.00;28.24
36454;BME280;22478;51.740;-1.314;2023-04-08T12:40:26;101243.79;;;16.58;27.59
36454;BME280;22478;51.740;-1.314;2023-04-08T12:42:52;101241.59;;;17.31;27.97
36454;BME280;22478;51.740;-1.314;2023-04-08T12:45:19;101242.52;;;20.02;25.79
36454;BME280;22478;51.740;-1.314;2023-04-08T12:47:46;101238.57;;;21.08;24.62